Time;durP1;ratioP1;P1;durP2;ratioP2;P2;SDS_P1;SDS_P2;PMS_P1;PMS_P2;Temp;Humidity;BMP_temperature;BMP_pressure;BME280_temperature;BME280_humidity;BME280_pressure;Samples;Min_cycle;Max_cycle;Signal;HPM_P1;HPM_P2
2023/05/06 00:00:21;;;;;;;4.20;2.80;;;;;;;9.10;66.29;100049.91;106827;1267;74015;-38
2023/05/06 00:02:48;;;;;;;2.20;1.90;;;;;;;9.06;66.52;100054.84;106737;1264;62755;-38
2023/05/06 00:05:17;;;;;;;6.10;2.70;;;;;;;9.10;66.46;100057.07;106730;1262;61088;-38
2023/05/06 00:07:45;;;;;;;5.30;3.00;;;;;;;9.12;66.43;100059.54;106727;1261;76352;-37
2023/05/06 00:10:15;;;;;;;4.90;3.20;;;;;;;9.10;66.46;100058.48;106774;1266;70070;-37
2023/05/06 00:12:42;;;;;;;4.60;3.10;;;;;;;9.06;66.41;100059.10;106831;1266;72556;-38
2023/05/06 00:15:10;;;;;;;9.00;3.50;;;;;;;9.03;66.49;100061.45;106763;1262;62422;-38
2023/05/06 00:17:37;;;;;;;6.00;3.50;;;;;;;9.01;66.51;100063.80;106854;1264;62655;-37
2023/05/06 00:20:06;;;;;;;5.30;3.20;;;;;;;9.02;66.49;100061.21;106762;1262;75640;-38
2023/05/06 00:22:33;;;;;;;6.40;2.80;;;;;;;9.03;66.50;100069.10;106851;1262;70307;-38
2023/05/06 00:25:00;;;;;;;4.60;3.10;;;;;;;9.06;66.34;100069.30;106812;1267;74361;-38
2023/05/06 00:27:27;;;;;;;4.30;2.90;;;;;;;9.06;66.12;100075.27;106825;1267;60451;-37
2023/05/06 00:29:54;;;;;;;6.20;3.40;;;;;;;9.04;66.17;100073.58;106876;1264;62362;-37
2023/05/06 00:32:21;;;;;;;4.30;3.20;;;;;;;9.04;66.28;100071.55;106861;1262;76292;-37
2023/05/06 00:34:50;;;;;;;4.50;3.20;;;;;;;9.01;66.48;100067.96;106902;1264;67648;-37
2023/05/06 00:37:17;;;;;;;7.30;3.20;;;;;;;8.95;66.47;100062.55;106717;1267;73394;-37
2023/05/06 00:39:44;;;;;;;6.40;3.10;;;;;;;8.94;66.66;100066.73;106664;1268;62737;-37
2023/05/06 00:42:11;;;;;;;4.50;2.90;;;;;;;8.87;66.61;100071.62;106725;1261;62168;-37
2023/05/06 00:44:39;;;;;;;5.50;2.90;;;;;;;8.85;66.59;100071.09;106854;1264;74504;-38
2023/05/06 00:47:06;;;;;;;3.40;2.70;;;;;;;8.85;66.81;100072.56;106902;1264;67216;-37
2023/05/06 00:49:36;;;;;;;4.50;3.10;;;;;;;8.85;66.89;100072.69;107293;1257;74434;-37
2023/05/06 00:52:03;;;;;;;6.90;3.20;;;;;;;8.85;67.00;100072.70;107424;1254;62364;-38
2023/05/06 00:54:30;;;;;;;4.30;3.30;;;;;;;8.82;66.80;100071.88;107471;1259;61544;-38
2023/05/06 00:56:57;;;;;;;4.50;3.20;;;;;;;8.79;66.96;100074.20;107297;1260;75238;-37
2023/05/06 00:59:26;;;;;;;4.10;3.10;;;;;;;8.76;66.97;100071.98;107390;1254;69069;-37
2023/05/06 01:01:53;;;;;;;5.00;3.10;;;;;;;8.76;66.84;100071.42;107547;1254;75033;-38
2023/05/06 01:04:22;;;;;;;4.10;3.10;;;;;;;8.78;67.12;100074.52;107554;1254;61492;-37
2023/05/06 01:07:01;;;;;;;9.60;3.40;;;;;;;8.78;67.08;100075.83;107546;1254;61373;-38
2023/05/06 01:09:42;;;;;;;5.10;3.40;;;;;;;8.72;67.17;100071.66;107642;1254;73771;-38
2023/05/06 01:12:20;;;;;;;3.80;3.40;;;;;;;8.63;67.20;100074.21;107599;1254;70053;-38
2023/05/06 01:14:53;;;;;;;5.30;3.30;;;;;;;8.57;67.25;100076.89;107458;1257;74957;-38
2023/05/06 01:17:20;;;;;;;5.30;3.40;;;;;;;8.51;67.39;100078.08;107349;1257;62891;-37
2023/05/06 01:19:48;;;;;;;3.40;3.10;;;;;;;8.47;67.51;100082.23;107425;1254;61759;-37
2023/05/06 01:22:15;;;;;;;5.40;3.40;;;;;;;8.52;67.42;100084.87;107519;1254;74004;-38
2023/05/06 01:24:43;;;;;;;3.20;2.90;;;;;;;8.53;67.47;100083.31;107460;1254;69128;-38
2023/05/06 01:27:11;;;;;;;3.70;3.20;;;;;;;8.49;67.50;100084.98;107439;1254;74963;-37
2023/05/06 01:29:44;;;;;;;4.10;2.90;;;;;;;8.45;67.55;100087.47;107434;1254;61466;-37
2023/05/06 01:32:16;;;;;;;8.00;3.60;;;;;;;8.39;67.72;100090.03;107255;1253;60128;-37
2023/05/06 01:35:05;;;;;;;5.20;3.20;;;;;;;8.34;67.59;100087.97;107419;1255;75807;-37
2023/05/06 01:37:51;;;;;;;4.30;3.20;;;;;;;8.25;67.70;100092.63;107430;1254;70253;-37
2023/05/06 01:40:18;;;;;;;4.30;2.90;;;;;;;8.22;67.74;100095.58;107462;1253;74728;-38
2023/05/06 01:42:47;;;;;;;4.70;3.10;;;;;;;8.19;67.91;100092.44;107459;1254;61635;-37
2023/05/06 01:45:15;;;;;;;4.00;2.60;;;;;;;8.17;67.97;100094.61;107426;1254;61486;-37
2023/05/06 01:47:43;;;;;;;5.00;3.30;;;;;;;8.11;68.20;100100.16;107166;1254;73722;-38
2023/05/06 01:50:10;;;;;;;5.00;3.50;;;;;;;8.07;68.22;100103.40;107399;1253;70294;-37
2023/05/06 01:52:38;;;;;;;5.20;3.30;;;;;;;8.01;68.05;100102.36;107356;1254;74005;-38
2023/05/06 01:55:06;;;;;;;4.00;3.50;;;;;;;7.94;68.12;100105.06;107369;1257;61075;-38
2023/05/06 01:57:33;;;;;;;5.40;3.20;;;;;;;7.92;68.12;100109.16;107501;1254;61144;-38
2023/05/06 02:00:01;;;;;;;3.40;2.80;;;;;;;7.90;68.16;100109.48;107182;1263;74956;-38
2023/05/06 02:02:38;;;;;;;5.70;3.30;;;;;;;7.86;68.42;100111.77;107458;1254;67394;-38
2023/05/06 02:05:06;;;;;;;6.50;3.20;;;;;;;7.77;68.47;100110.95;107438;1254;73033;-37
2023/05/06 02:07:36;;;;;;;5.50;3.40;;;;;;;7.68;68.71;100110.41;107464;1254;60977;-38
2023/05/06 02:10:04;;;;;;;5.90;3.60;;;;;;;7.61;68.77;100113.48;107424;1253;61352;-38
2023/05/06 02:12:32;;;;;;;4.30;3.20;;;;;;;7.52;69.19;100114.20;107319;1254;74241;-38
2023/05/06 02:14:59;;;;;;;4.90;2.90;;;;;;;7.47;69.28;100112.74;107437;1254;68182;-37
2023/05/06 02:17:26;;;;;;;4.10;3.10;;;;;;;7.44;69.57;100113.71;107435;1260;74981;-38
2023/05/06 02:19:55;;;;;;;3.50;3.20;;;;;;;7.38;69.62;100116.31;107488;1253;61106;-37
2023/05/06 02:22:22;;;;;;;6.10;3.00;;;;;;;7.33;69.83;100113.23;107164;1254;60600;-37
2023/05/06 02:24:49;;;;;;;3.60;3.10;;;;;;;7.28;69.82;100110.36;107377;1259;75339;-37
2023/05/06 02:27:17;;;;;;;5.80;2.90;;;;;;;7.17;69.75;100112.59;107540;1254;66990;-37
2023/05/06 02:29:45;;;;;;;5.40;3.00;;;;;;;7.15;69.79;100126.39;107399;1254;74696;-37
2023/05/06 02:32:12;;;;;;;3.10;2.50;;;;;;;7.20;70.33;100139.02;107423;1254;62691;-37
2023/05/06 02:34:40;;;;;;;5.50;3.30;;;;;;;7.20;70.42;100132.98;107414;1254;62810;-37
2023/05/06 02:37:07;;;;;;;3.80;3.10;;;;;;;7.26;70.32;100137.39;107425;1254;75971;-37
2023/05/06 02:39:34;;;;;;;3.30;3.00;;;;;;;7.28;70.32;100140.36;107454;1257;69973;-37
2023/05/06 02:42:02;;;;;;;4.50;3.00;;;;;;;7.31;70.06;100145.33;107295;1253;73776;-38
2023/05/06 02:44:30;;;;;;;4.90;3.20;;;;;;;7.34;69.89;100148.39;107368;1253;63281;-37
2023/05/06 02:46:57;;;;;;;3.20;2.60;;;;;;;7.44;69.43;100150.77;107498;1254;61218;-38
2023/05/06 02:49:24;;;;;;;4.00;2.70;;;;;;;7.52;69.06;100149.63;107489;1254;75978;-37
2023/05/06 02:51:52;;;;;;;7.70;3.20;;;;;;;7.51;68.98;100150.60;107475;1257;70119;-37
2023/05/06 02:54:19;;;;;;;4.00;2.90;;;;;;;7.43;68.96;100141.73;107466;1257;74934;-37
2023/05/06 02:56:46;;;;;;;3.40;3.00;;;;;;;7.49;68.90;100151.92;106517;1257;1002970;-37
2023/05/06 02:59:13;;;;;;;4.00;2.70;;;;;;;7.50;68.87;100159.05;107448;1254;62088;-37
2023/05/06 03:01:41;;;;;;;5.60;2.60;;;;;;;7.49;68.87;100163.52;107296;1253;72745;-38
2023/05/06 03:04:08;;;;;;;5.20;2.90;;;;;;;7.48;68.79;100173.20;107205;1254;69783;-38
2023/05/06 03:06:35;;;;;;;3.10;2.60;;;;;;;7.50;68.65;100179.45;107323;1259;73834;-37
2023/05/06 03:09:03;;;;;;;2.90;2.60;;;;;;;7.57;68.50;100189.55;107330;1253;60476;-37
2023/05/06 03:11:31;;;;;;;4.10;2.70;;;;;;;7.59;68.28;100188.74;107390;1254;62620;-37
2023/05/06 03:14:01;;;;;;;3.50;2.90;;;;;;;7.62;68.25;100188.79;107461;1255;75924;-38
2023/05/06 03:16:28;;;;;;;3.80;2.80;;;;;;;7.67;68.24;100187.45;107426;1253;69182;-38
2023/05/06 03:18:57;;;;;;;3.80;2.90;;;;;;;7.68;67.98;100183.20;107450;1254;71675;-38
2023/05/06 03:21:25;;;;;;;4.80;3.10;;;;;;;7.67;68.14;100178.27;107258;1254;61611;-37
2023/05/06 03:23:52;;;;;;;4.10;2.60;;;;;;;7.62;68.07;100179.86;107460;1253;60316;-37
2023/05/06 03:26:20;;;;;;;2.90;2.50;;;;;;;7.66;67.82;100187.89;107212;1253;72726;-37
2023/05/06 03:28:48;;;;;;;3.00;2.50;;;;;;;7.71;67.83;100189.41;107494;1254;68907;-37
2023/05/06 03:31:16;;;;;;;4.40;2.60;;;;;;;7.75;67.56;100186.50;107462;1255;72289;-37
2023/05/06 03:33:43;;;;;;;3.20;2.60;;;;;;;7.74;67.47;100194.48;107456;1258;60735;-37
2023/05/06 03:36:15;;;;;;;3.50;3.10;;;;;;;7.75;67.41;100203.40;107510;1254;60861;-38
2023/05/06 03:38:43;;;;;;;5.00;2.90;;;;;;;7.77;67.23;100210.09;107490;1254;72922;-38
2023/05/06 03:41:11;;;;;;;3.30;2.50;;;;;;;7.75;67.03;100204.26;107493;1254;67120;-38
2023/05/06 03:43:39;;;;;;;4.40;2.70;;;;;;;7.74;66.89;100205.75;107392;1254;72837;-37
2023/05/06 03:46:06;;;;;;;3.30;2.60;;;;;;;7.79;66.99;100211.48;107363;1259;63078;-38
2023/05/06 03:48:34;;;;;;;3.70;2.40;;;;;;;7.82;67.05;100210.48;107384;1253;61255;-38
2023/05/06 03:51:03;;;;;;;3.40;2.30;;;;;;;7.83;67.13;100213.78;107411;1255;75143;-37
2023/05/06 03:53:30;;;;;;;5.50;2.90;;;;;;;7.87;67.08;100221.27;107488;1253;69076;-38
2023/05/06 03:55:57;;;;;;;3.90;2.80;;;;;;;7.93;66.84;100226.15;107279;1253;74835;-37
2023/05/06 03:58:25;;;;;;;4.10;2.90;;;;;;;7.98;66.57;100226.14;107384;1254;60382;-37
2023/05/06 04:00:52;;;;;;;5.10;3.20;;;;;;;8.01;66.66;100227.50;107450;1254;62002;-37
2023/05/06 04:03:19;;;;;;;4.30;2.50;;;;;;;8.03;67.00;100227.20;107471;1253;75941;-37
2023/05/06 04:05:49;;;;;;;2.80;2.20;;;;;;;8.11;67.00;100224.67;107461;1253;66691;-37
2023/05/06 04:08:19;;;;;;;6.40;2.30;;;;;;;8.18;66.83;100223.20;107483;1258;72506;-37
2023/05/06 04:10:47;;;;;;;3.60;2.20;;;;;;;8.22;66.67;100224.93;107309;1253;61173;-37
2023/05/06 04:13:21;;;;;;;2.50;2.20;;;;;;;8.27;66.66;100228.02;107496;1258;60371;-37
2023/05/06 04:15:49;;;;;;;4.60;2.20;;;;;;;8.31;66.23;100231.41;107517;1253;75651;-37
2023/05/06 04:18:19;;;;;;;2.40;2.20;;;;;;;8.36;66.00;100232.61;107467;1253;68061;-37
2023/05/06 04:20:54;;;;;;;3.30;2.30;;;;;;;8.44;65.76;100232.91;107468;1253;71150;-38
2023/05/06 04:23:21;;;;;;;2.90;2.20;;;;;;;8.49;65.46;100239.82;107410;1253;62756;-38
2023/05/06 04:25:49;;;;;;;2.90;2.00;;;;;;;8.51;65.21;100239.04;107498;1258;60720;-37
2023/05/06 04:28:17;;;;;;;3.40;2.30;;;;;;;8.51;65.22;100241.05;107406;1253;73134;-38
2023/05/06 04:30:47;;;;;;;;;;;;;;;8.56;63.94;100239.15;107411;1253;67701;-37
2023/05/06 04:33:14;;;;;;;3.80;2.10;;;;;;;8.50;64.30;100245.24;107316;1256;74629;-37
2023/05/06 04:35:49;;;;;;;4.60;2.40;;;;;;;8.49;64.28;100246.90;107375;1253;61560;-37
2023/05/06 04:38:17;;;;;;;5.30;2.50;;;;;;;8.55;63.74;100256.12;107368;1253;61117;-37
2023/05/06 04:40:44;;;;;;;3.40;2.20;;;;;;;8.56;63.71;100248.66;107354;1253;73982;-37
2023/05/06 04:43:12;;;;;;;3.50;2.60;;;;;;;8.59;63.67;100250.81;107522;1253;67003;-37
2023/05/06 04:45:48;;;;;;;3.40;2.30;;;;;;;8.59;62.92;100250.21;107524;1257;73529;-37
2023/05/06 04:48:21;;;;;;;4.10;2.10;;;;;;;8.52;62.12;100247.49;107443;1255;60495;-37
2023/05/06 04:50:57;;;;;;;8.70;2.50;;;;;;;8.42;61.94;100254.11;107473;1253;60838;-38
2023/05/06 04:53:24;;;;;;;2.80;2.40;;;;;;;8.33;62.00;100247.70;107495;1254;73773;-38
2023/05/06 04:55:52;;;;;;;5.20;2.10;;;;;;;8.30;62.74;100255.91;106726;1253;1003626;-38
2023/05/06 04:58:20;;;;;;;4.70;1.70;;;;;;;8.37;62.86;100256.73;107295;1253;71747;-38
2023/05/06 05:00:47;;;;;;;2.20;1.80;;;;;;;8.42;61.97;100251.63;107462;1253;62222;-38
2023/05/06 05:03:14;;;;;;;4.30;2.50;;;;;;;8.47;61.81;100256.16;107492;1253;60778;-38
2023/05/06 05:05:43;;;;;;;3.30;1.60;;;;;;;8.48;61.17;100255.37;107236;1253;76139;-38
2023/05/06 05:08:15;;;;;;;3.20;1.80;;;;;;;8.50;60.93;100256.98;107325;1254;66811;-37
2023/05/06 05:10:42;;;;;;;6.80;2.40;;;;;;;8.49;60.45;100255.84;107285;1255;73570;-38
2023/05/06 05:13:12;;;;;;;4.50;2.40;;;;;;;8.48;60.11;100255.27;107362;1258;61507;-37
2023/05/06 05:15:40;;;;;;;3.30;2.00;;;;;;;8.47;60.63;100256.06;107420;1253;62595;-38
2023/05/06 05:18:08;;;;;;;3.60;2.10;;;;;;;8.47;59.52;100254.70;107425;1253;73592;-38
2023/05/06 05:20:35;;;;;;;4.80;2.20;;;;;;;8.50;58.58;100254.18;107399;1253;68225;-38
2023/05/06 05:23:03;;;;;;;3.60;2.10;;;;;;;8.49;57.20;100253.17;107373;1254;71416;-38
2023/05/06 05:25:31;;;;;;;4.60;2.30;;;;;;;8.50;57.23;100252.81;107468;1254;61150;-38
2023/05/06 05:27:58;;;;;;;5.90;2.20;;;;;;;8.53;56.48;100251.69;107450;1253;60565;-38
2023/05/06 05:30:25;;;;;;;2.90;2.00;;;;;;;8.53;55.61;100251.65;107509;1253;72027;-38
2023/05/06 05:32:53;;;;;;;4.80;2.20;;;;;;;8.54;55.23;100253.53;107524;1258;68566;-38
2023/05/06 05:35:20;;;;;;;4.20;1.80;;;;;;;8.59;56.29;100259.98;107433;1254;75032;-38
2023/05/06 05:37:49;;;;;;;3.80;2.10;;;;;;;8.64;56.58;100260.52;107513;1254;60301;-39
2023/05/06 05:40:16;;;;;;;4.10;2.10;;;;;;;8.76;56.61;100266.92;107518;1256;61091;-37
2023/05/06 05:42:44;;;;;;;4.40;2.20;;;;;;;8.85;56.32;100263.35;107483;1253;73982;-37
2023/05/06 05:45:20;;;;;;;4.60;2.30;;;;;;;8.96;56.20;100263.96;107484;1253;68763;-38
2023/05/06 05:47:47;;;;;;;6.40;2.60;;;;;;;9.06;55.37;100268.08;107525;1253;71774;-37
2023/05/06 05:50:15;;;;;;;6.10;2.60;;;;;;;9.15;55.09;100269.94;107423;1254;60479;-37
2023/05/06 05:52:43;;;;;;;5.60;2.20;;;;;;;9.23;54.65;100273.52;107348;1253;62446;-37
2023/05/06 05:55:11;;;;;;;4.10;2.10;;;;;;;9.31;53.68;100273.13;107352;1253;75329;-37
2023/05/06 05:57:40;;;;;;;4.90;2.50;;;;;;;9.38;53.68;100273.65;107485;1253;68584;-36
2023/05/06 06:00:08;;;;;;;4.30;2.30;;;;;;;9.48;52.92;100274.91;107520;1254;72137;-38
2023/05/06 06:02:50;;;;;;;3.20;2.30;;;;;;;9.54;51.83;100274.33;107296;1256;61474;-37
2023/05/06 06:05:18;;;;;;;3.20;2.00;;;;;;;9.59;50.65;100271.70;107480;1253;61407;-37
2023/05/06 06:07:45;;;;;;;2.40;1.90;;;;;;;9.63;50.22;100275.82;107424;1254;76140;-37
2023/05/06 06:10:14;;;;;;;4.90;2.10;;;;;;;9.69;50.37;100271.64;107404;1253;65826;-37
2023/05/06 06:12:43;;;;;;;4.00;2.10;;;;;;;9.76;50.40;100276.66;107463;1253;73738;-37
2023/05/06 06:15:13;;;;;;;4.00;1.90;;;;;;;9.85;49.88;100271.20;107517;1257;61592;-37
2023/05/06 06:17:40;;;;;;;5.50;2.10;;;;;;;9.91;49.97;100274.91;107499;1253;60174;-37
2023/05/06 06:20:09;;;;;;;3.70;1.90;;;;;;;10.02;49.77;100272.41;107334;1253;73944;-38
2023/05/06 06:22:36;;;;;;;3.60;2.00;;;;;;;10.13;48.40;100273.21;107516;1257;70279;-38
2023/05/06 06:25:04;;;;;;;3.80;2.00;;;;;;;10.23;47.82;100268.02;107439;1253;73545;-38
2023/05/06 06:27:37;;;;;;;4.10;2.10;;;;;;;10.32;47.68;100267.54;107387;1258;61798;-38
2023/05/06 06:30:06;;;;;;;3.10;1.80;;;;;;;10.40;45.34;100269.74;107292;1253;61329;-37
2023/05/06 06:32:34;;;;;;;4.00;1.90;;;;;;;10.41;41.55;100273.83;107498;1253;75646;-38
2023/05/06 06:35:01;;;;;;;3.10;1.60;;;;;;;10.45;42.08;100274.98;107449;1253;67935;-38
2023/05/06 06:37:28;;;;;;;4.60;1.90;;;;;;;10.51;41.20;100280.20;107424;1253;75012;-38
2023/05/06 06:39:55;;;;;;;2.40;1.90;;;;;;;10.57;38.67;100281.16;107451;1254;60650;-37
2023/05/06 06:42:23;;;;;;;2.90;1.40;;;;;;;10.57;39.17;100282.56;107475;1253;61367;-38
2023/05/06 06:44:58;;;;;;;4.40;1.50;;;;;;;10.58;39.66;100281.21;107455;1253;73722;-38
2023/05/06 06:47:26;;;;;;;2.50;1.90;;;;;;;10.57;39.91;100278.39;107482;1253;69628;-37
2023/05/06 06:49:53;;;;;;;4.10;2.00;;;;;;;10.62;40.54;100281.04;107430;1254;73213;-38
2023/05/06 06:52:20;;;;;;;5.80;1.90;;;;;;;10.71;41.17;100284.98;107432;1254;61186;-38
2023/05/06 06:54:47;;;;;;;2.70;1.60;;;;;;;10.80;40.18;100283.81;107486;1253;61314;-38
2023/05/06 06:57:14;;;;;;;4.20;2.00;;;;;;;10.87;40.18;100283.50;107472;1253;76126;-38
2023/05/06 06:59:41;;;;;;;3.50;1.60;;;;;;;10.97;39.95;100286.45;107387;1253;70281;-38
2023/05/06 07:02:09;;;;;;;2.70;1.60;;;;;;;11.05;39.29;100284.27;107369;1253;75150;-38
2023/05/06 07:04:36;;;;;;;4.20;1.80;;;;;;;11.09;39.81;100281.94;107495;1253;61496;-38
2023/05/06 07:07:03;;;;;;;3.20;2.00;;;;;;;11.14;39.85;100284.27;107426;1253;62354;-38
2023/05/06 07:09:30;;;;;;;3.30;1.80;;;;;;;11.22;39.66;100281.02;107387;1253;76131;-38
2023/05/06 07:12:00;;;;;;;2.20;1.60;;;;;;;11.30;38.14;100280.80;107382;1253;69997;-37
2023/05/06 07:14:28;;;;;;;3.60;1.40;;;;;;;11.35;37.05;100284.91;107417;1253;74039;-38
2023/05/06 07:16:55;;;;;;;2.90;1.60;;;;;;;11.44;37.65;100284.34;107466;1253;61095;-38
2023/05/06 07:19:23;;;;;;;4.60;2.30;;;;;;;11.56;36.87;100287.73;107530;1258;60369;-37
2023/05/06 07:21:50;;;;;;;3.60;1.70;;;;;;;11.61;36.03;100274.36;107443;1253;75661;-38
2023/05/06 07:24:17;;;;;;;6.40;2.30;;;;;;;11.72;37.10;100279.02;107440;1258;68785;-37
2023/05/06 07:26:44;;;;;;;2.70;1.70;;;;;;;11.82;37.21;100281.66;107433;1253;74198;-38
2023/05/06 07:29:11;;;;;;;3.40;1.80;;;;;;;11.95;37.36;100276.98;107444;1253;62719;-38
2023/05/06 07:31:38;;;;;;;2.20;1.70;;;;;;;12.08;37.11;100278.89;107451;1253;60784;-38
2023/05/06 07:34:06;;;;;;;4.00;1.80;;;;;;;12.17;36.50;100279.85;107459;1258;76002;-37
2023/05/06 07:36:39;;;;;;;6.90;1.60;;;;;;;12.23;35.30;100282.73;107480;1253;70314;-37
2023/05/06 07:39:06;;;;;;;4.80;1.70;;;;;;;12.26;34.52;100286.02;107458;1253;74483;-38
2023/05/06 07:41:34;;;;;;;3.40;1.70;;;;;;;12.31;35.13;100281.80;107428;1254;62690;-38
2023/05/06 07:44:02;;;;;;;2.20;1.70;;;;;;;12.40;34.62;100280.92;107459;1254;61188;-38
2023/05/06 07:46:29;;;;;;;2.60;1.70;;;;;;;12.48;33.95;100283.95;107483;1253;74251;-38
2023/05/06 07:48:56;;;;;;;2.60;1.20;;;;;;;12.54;32.60;100280.91;107481;1253;69605;-37
2023/05/06 07:51:23;;;;;;;2.50;1.70;;;;;;;12.47;31.38;100279.30;107505;1253;74697;-38
2023/05/06 07:53:51;;;;;;;4.50;1.70;;;;;;;12.42;31.88;100288.14;107401;1253;61916;-38
2023/05/06 07:59:20;;;;;;;3.30;1.70;;;;;;;12.51;31.14;100282.09;104107;1292;601222;-37
2023/05/06 08:01:47;;;;;;;6.80;1.70;;;;;;;12.52;31.40;100286.91;106611;1267;61515;-37
2023/05/06 08:04:15;;;;;;;5.30;2.00;;;;;;;12.58;32.04;100290.58;106624;1267;62824;-38
2023/05/06 08:06:42;;;;;;;6.60;1.90;;;;;;;12.69;32.17;100288.82;106662;1266;74789;-37
2023/05/06 08:09:10;;;;;;;5.10;1.70;;;;;;;12.79;31.22;100292.33;106675;1271;68818;-38
2023/05/06 08:11:49;;;;;;;4.50;1.90;;;;;;;12.84;29.99;100292.91;106477;1266;224898;-38
2023/05/06 08:14:16;;;;;;;3.00;1.90;;;;;;;12.86;30.35;100294.60;106062;1264;1003260;-37
2023/05/06 08:16:43;;;;;;;1.70;1.50;;;;;;;12.92;31.51;100288.14;106718;1264;63133;-38
2023/05/06 08:19:11;;;;;;;5.80;1.90;;;;;;;13.05;31.72;100299.73;106828;1268;74538;-37
2023/05/06 08:21:39;;;;;;;5.70;1.70;;;;;;;13.25;31.33;100301.23;106718;1264;70358;-37
2023/05/06 08:24:06;;;;;;;3.60;1.70;;;;;;;13.39;29.93;100304.76;106774;1264;73479;-37
2023/05/06 08:26:33;;;;;;;1.90;1.40;;;;;;;13.45;29.37;100309.25;106716;1264;60043;-37
2023/05/06 08:29:02;;;;;;;2.10;1.50;;;;;;;13.53;29.01;100306.38;106724;1264;60326;-37
2023/05/06 08:31:29;;;;;;;3.60;1.70;;;;;;;13.58;27.30;100301.20;106725;1264;75154;-38
2023/05/06 08:33:56;;;;;;;4.30;2.00;;;;;;;13.58;27.58;100304.10;106681;1264;69231;-37
2023/05/06 08:36:23;;;;;;;5.60;1.80;;;;;;;13.55;27.52;100307.77;106687;1264;73743;-37
2023/05/06 08:38:51;;;;;;;2.40;1.60;;;;;;;13.51;27.43;100304.64;106632;1264;62398;-37
2023/05/06 08:41:18;;;;;;;3.00;1.40;;;;;;;13.47;27.27;100303.70;106797;1264;60762;-37
2023/05/06 08:43:47;;;;;;;2.50;1.50;;;;;;;13.48;27.91;100314.77;106781;1266;74177;-38
2023/05/06 08:46:14;;;;;;;2.70;1.70;;;;;;;13.57;27.83;100313.33;106741;1269;70502;-37
2023/05/06 08:48:41;;;;;;;3.60;1.80;;;;;;;13.64;27.26;100322.59;106821;1266;71930;-37
2023/05/06 08:51:09;;;;;;;3.00;1.60;;;;;;;13.67;27.42;100319.86;107208;1257;60897;-38
2023/05/06 08:53:37;;;;;;;2.40;1.70;;;;;;;13.74;27.59;100320.95;107201;1257;61677;-37
2023/05/06 08:56:07;;;;;;;3.00;1.60;;;;;;;13.81;27.66;100322.02;107163;1257;74961;-37
2023/05/06 08:58:36;;;;;;;1.80;1.50;;;;;;;13.79;26.49;100317.69;107237;1257;69076;-37
2023/05/06 09:01:03;;;;;;;3.00;1.50;;;;;;;13.78;26.79;100320.25;107277;1257;74033;-37
2023/05/06 09:03:31;;;;;;;1.90;1.70;;;;;;;13.83;26.65;100316.23;107185;1257;62214;-37
2023/05/06 09:06:00;;;;;;;4.60;1.60;;;;;;;13.89;27.21;100310.50;107269;1257;62545;-37
2023/05/06 09:08:28;;;;;;;2.80;1.70;;;;;;;13.96;27.68;100318.83;107154;1257;74163;-37
2023/05/06 09:10:56;;;;;;;2.70;1.60;;;;;;;13.98;25.87;100310.62;107220;1257;68771;-37
2023/05/06 09:13:23;;;;;;;1.60;1.40;;;;;;;13.89;25.68;100313.55;107040;1259;74080;-37
2023/05/06 09:15:52;;;;;;;2.40;1.70;;;;;;;13.84;25.74;100316.56;107185;1257;61768;-37
2023/05/06 09:18:19;;;;;;;3.20;1.70;;;;;;;13.85;26.85;100319.77;107280;1261;59818;-37
2023/05/06 09:20:47;;;;;;;4.40;1.90;;;;;;;13.96;27.34;100313.78;107098;1257;75330;-37
2023/05/06 09:23:15;;;;;;;1.70;1.50;;;;;;;14.16;27.52;100312.23;107213;1257;68481;-37
2023/05/06 09:25:44;;;;;;;3.50;1.60;;;;;;;14.39;27.54;100316.88;107299;1257;74958;-37
2023/05/06 09:28:12;;;;;;;3.50;1.70;;;;;;;14.53;26.25;100309.58;107311;1261;61824;-37
2023/05/06 09:30:43;;;;;;;2.80;1.80;;;;;;;14.56;26.46;100316.74;107216;1257;62435;-37
2023/05/06 09:33:11;;;;;;;3.60;1.90;;;;;;;14.57;25.62;100315.54;107282;1257;73928;-37
2023/05/06 09:35:40;;;;;;;2.20;1.50;;;;;;;14.54;25.62;100316.40;107246;1256;69203;-37
2023/05/06 09:38:08;;;;;;;2.60;1.90;;;;;;;14.51;26.23;100310.96;107271;1257;74942;-37
2023/05/06 09:40:35;;;;;;;5.30;2.10;;;;;;;14.63;26.00;100306.50;107230;1257;61661;-37
2023/05/06 09:43:03;;;;;;;3.60;2.20;;;;;;;14.79;25.95;100305.30;107277;1257;61471;-37
2023/05/06 09:45:31;;;;;;;4.00;2.10;;;;;;;14.91;25.55;100305.19;107233;1257;75393;-37
2023/05/06 09:47:59;;;;;;;3.00;1.90;;;;;;;15.00;25.39;100299.77;107135;1257;70340;-37
2023/05/06 09:50:27;;;;;;;5.90;2.20;;;;;;;15.06;26.17;100294.66;107168;1257;75045;-37
2023/05/06 09:52:55;;;;;;;3.80;2.20;;;;;;;15.20;25.84;100293.70;106973;1260;62495;-37
2023/05/06 09:55:25;;;;;;;5.00;2.30;;;;;;;15.35;24.84;100294.09;107220;1257;61650;-37
2023/05/06 09:57:53;;;;;;;4.80;1.90;;;;;;;15.42;23.74;100291.53;107244;1257;74778;-36
2023/05/06 10:00:26;;;;;;;4.10;2.60;;;;;;;15.45;24.58;100296.71;107076;1259;68769;-37
2023/05/06 10:02:54;;;;;;;4.20;2.60;;;;;;;15.52;24.74;100292.79;107130;1257;74988;-36
2023/05/06 10:05:21;;;;;;;2.90;2.00;;;;;;;15.66;24.28;100293.52;107278;1257;62363;-37
2023/05/06 10:07:48;;;;;;;5.30;1.90;;;;;;;15.78;23.59;100290.23;107090;1257;59526;-37
2023/05/06 10:10:16;;;;;;;3.00;1.50;;;;;;;15.83;23.94;100288.59;107088;1257;75221;-37
2023/05/06 10:12:43;;;;;;;3.50;1.80;;;;;;;15.89;23.03;100288.89;107194;1257;68194;-37
2023/05/06 10:15:10;;;;;;;4.20;1.50;;;;;;;15.87;24.00;100288.63;107222;1257;73542;-37
2023/05/06 10:17:38;;;;;;;2.70;1.80;;;;;;;15.80;23.78;100283.70;107267;1256;61683;-37
2023/05/06 10:20:07;;;;;;;13.40;1.80;;;;;;;15.83;23.57;100286.40;107261;1257;61978;-37
2023/05/06 10:22:40;;;;;;;2.20;1.60;;;;;;;15.91;24.20;100292.98;107150;1257;75294;-37
2023/05/06 10:25:34;;;;;;;3.20;1.50;;;;;;;16.07;24.05;100297.95;107102;1259;68605;-37
2023/05/06 10:28:09;;;;;;;6.20;1.80;;;;;;;16.28;24.26;100297.70;107146;1258;74739;-37
2023/05/06 10:30:56;;;;;;;3.10;1.50;;;;;;;16.52;23.32;100300.30;107005;1259;62406;-37
2023/05/06 10:33:23;;;;;;;3.40;1.60;;;;;;;16.75;23.22;100300.31;107234;1260;62727;-37
2023/05/06 10:36:14;;;;;;;2.20;1.40;;;;;;;17.01;22.62;100296.62;107100;1260;74470;-37
2023/05/06 10:38:43;;;;;;;4.50;1.60;;;;;;;17.20;22.49;100294.55;107045;1260;69971;-37
2023/05/06 10:41:10;;;;;;;4.10;1.80;;;;;;;17.14;20.83;100291.94;107110;1262;74127;-37
2023/05/06 10:43:40;;;;;;;2.50;1.60;;;;;;;16.94;21.63;100296.16;106995;1259;60212;-37
2023/05/06 10:46:14;;;;;;;2.40;1.40;;;;;;;16.96;22.39;100287.97;107093;1257;63141;-37
2023/05/06 10:49:11;;;;;;;2.80;1.50;;;;;;;17.26;21.76;100287.95;107084;1262;74968;-36
2023/05/06 10:51:41;;;;;;;3.50;1.70;;;;;;;17.54;20.94;100289.21;107072;1258;67368;-36
2023/05/06 10:54:18;;;;;;;6.30;1.80;;;;;;;17.71;21.20;100286.81;107186;1258;74561;-37
2023/05/06 10:56:48;;;;;;;3.70;1.40;;;;;;;17.90;21.10;100275.77;107066;1259;63051;-37
2023/05/06 10:59:27;;;;;;;1.90;1.40;;;;;;;18.28;20.74;100276.52;107102;1257;62375;-37
2023/05/06 11:01:56;;;;;;;4.00;1.50;;;;;;;18.67;20.55;100271.64;107081;1258;75357;-37
2023/05/06 11:04:23;;;;;;;2.90;2.30;;;;;;;19.25;20.49;100272.95;107128;1260;69344;-37
2023/05/06 11:06:52;;;;;;;2.80;1.50;;;;;;;19.73;20.03;100273.64;107196;1260;73888;-37
2023/05/06 11:09:23;;;;;;;3.70;1.70;;;;;;;19.82;18.73;100264.10;107057;1260;61804;-37
2023/05/06 11:11:59;;;;;;;2.40;1.60;;;;;;;19.67;19.29;100257.47;107097;1257;59558;-37
2023/05/06 11:14:37;;;;;;;2.50;1.50;;;;;;;19.81;19.28;100255.53;107212;1258;75442;-37
2023/05/06 11:17:06;;;;;;;3.50;1.50;;;;;;;19.90;18.93;100256.67;107124;1261;69292;-37
2023/05/06 11:19:37;;;;;;;2.10;1.80;;;;;;;19.79;18.52;100258.60;107080;1260;73630;-37
2023/05/06 11:22:05;;;;;;;2.30;1.60;;;;;;;19.53;18.99;100254.84;107016;1262;61271;-38
2023/05/06 11:24:40;;;;;;;4.70;1.50;;;;;;;19.33;19.95;100255.89;107112;1258;61181;-37
2023/05/06 11:27:08;;;;;;;3.30;1.30;;;;;;;19.35;18.92;100248.20;107097;1262;74490;-38
2023/05/06 11:29:36;;;;;;;3.70;2.10;;;;;;;19.50;19.15;100252.80;107187;1260;70313;-38
2023/05/06 11:32:04;;;;;;;2.60;1.60;;;;;;;19.84;18.58;100251.83;107023;1259;74862;-37